Terminal Aerodrome Forecast
Issued by NWS Tallahassee, FL

Home | Current Version | Previous Version | Text Only | Print | Product List | Glossary On
Versions: 1 2 3 4 5 6 7 8 9 10 11 12 13 14 15 16 17 18 19 20 21 22 23 24 25 26 27 28 29 30 31 32 33 34 35 36 37 38 39 40 41 42 43 44 45 46 47 48 49 50
000
FTUS42 KTAE 201720
TAFTLH
TAF
KTLH 201720Z 2018/2118 21010KT P6SM VCTS BKN035CB
      TEMPO 2018/2022 21015KT 4SM TS BKN035CB
     FM202200 22006KT P6SM VCTS BKN035CB BKN250
     FM210000 VRB02KT P6SM SCT035 SCT250=

USA.gov is the U.S. government's official web portal to all federal, state and local government web resources and services.